createdAt,value
2017-12-03T00:01:03.452Z,0.10
2017-12-03T00:06:04.220Z,0.06
2017-12-03T00:11:04.996Z,0.07
2017-12-03T00:16:05.767Z,0.12
2017-12-03T00:21:06.547Z,0.10
2017-12-03T00:26:07.372Z,0.09
2017-12-03T00:31:08.142Z,0.08
2017-12-03T00:36:08.905Z,0.06
2017-12-03T00:41:09.714Z,0.06
2017-12-03T00:46:10.489Z,0.05
2017-12-03T00:51:11.362Z,0.03
2017-12-03T00:56:12.132Z,0.02
2017-12-03T01:01:12.911Z,0.02
2017-12-03T01:06:13.702Z,-0.09
2017-12-03T01:11:14.476Z,-0.07
2017-12-03T01:16:15.269Z,-0.03
2017-12-03T01:21:16.062Z,0.00
2017-12-03T01:26:16.849Z,-0.01
2017-12-03T01:31:17.659Z,-0.03
2017-12-03T01:36:18.430Z,0.10
2017-12-03T01:41:19.214Z,-0.07
2017-12-03T01:46:20.020Z,-0.03
2017-12-03T01:51:20.805Z,-0.10
2017-12-03T01:56:21.605Z,-0.10
2017-12-03T02:01:22.400Z,-0.07
2017-12-03T02:06:23.195Z,-0.05
2017-12-03T02:11:24.005Z,-0.03
2017-12-03T02:16:24.800Z,-0.06
2017-12-03T02:21:25.573Z,-0.05
2017-12-03T02:26:26.337Z,-0.09
2017-12-03T02:31:27.129Z,-0.12
2017-12-03T02:36:27.911Z,-0.13
2017-12-03T02:41:28.974Z,-0.15
2017-12-03T02:46:29.721Z,-0.04
2017-12-03T02:51:30.513Z,-0.04
2017-12-03T02:56:31.297Z,-0.02
2017-12-03T03:01:32.115Z,0.14
2017-12-03T03:06:32.914Z,-0.03
2017-12-03T03:11:33.692Z,-0.14
2017-12-03T03:16:34.497Z,-0.16
2017-12-03T03:21:35.283Z,-0.09
2017-12-03T03:26:36.074Z,-0.08
2017-12-03T03:31:36.846Z,0.03
2017-12-03T03:36:37.662Z,-0.04
2017-12-03T03:41:38.457Z,-0.12
2017-12-03T03:46:39.247Z,-0.07
2017-12-03T03:51:40.040Z,-0.07
2017-12-03T03:56:40.850Z,-0.04
2017-12-03T04:01:41.638Z,-0.01
2017-12-03T04:06:42.462Z,-0.02
2017-12-03T04:11:43.294Z,0.01
2017-12-03T04:16:44.102Z,-0.01
2017-12-03T04:21:44.921Z,-0.07
2017-12-03T04:26:45.737Z,-0.02
2017-12-03T04:31:46.564Z,-0.04
2017-12-03T04:36:48.393Z,-0.03
2017-12-03T04:41:49.581Z,-0.06
2017-12-03T04:46:50.488Z,-0.05
2017-12-03T04:51:51.298Z,-0.08
2017-12-03T04:56:52.113Z,-0.03
2017-12-03T05:01:52.902Z,-0.07
2017-12-03T05:06:53.733Z,-0.02
2017-12-03T05:11:54.533Z,0.00
2017-12-03T05:16:55.320Z,0.01
2017-12-03T05:21:56.130Z,-0.05
2017-12-03T05:26:56.946Z,-0.07
2017-12-03T05:31:57.741Z,-0.10
2017-12-03T05:36:58.600Z,-0.03
2017-12-03T05:41:59.328Z,-0.09
2017-12-03T05:47:00.136Z,0.03
2017-12-03T05:52:00.951Z,0.02
2017-12-03T05:57:01.733Z,-0.06
2017-12-03T06:02:02.555Z,-0.06
2017-12-03T06:07:03.334Z,-0.08
2017-12-03T06:12:04.171Z,-0.03
2017-12-03T06:17:04.982Z,-0.13
2017-12-03T06:22:05.765Z,-0.12
2017-12-03T06:27:06.568Z,-0.15
2017-12-03T06:32:07.347Z,-0.14
2017-12-03T06:37:08.149Z,-0.10
2017-12-03T06:42:08.947Z,-0.05
2017-12-03T06:47:09.743Z,-0.06
2017-12-03T06:52:10.582Z,-0.05
2017-12-03T06:57:11.392Z,-0.04
2017-12-03T07:02:12.381Z,0.02
2017-12-03T07:07:13.246Z,0.05
2017-12-03T07:12:14.237Z,0.06
2017-12-03T07:17:15.015Z,0.09
2017-12-03T07:22:15.831Z,0.10
2017-12-03T07:27:16.638Z,0.17
2017-12-03T07:32:17.417Z,0.17
2017-12-03T07:37:18.220Z,0.27
2017-12-03T07:42:19.023Z,0.39
2017-12-03T07:47:19.864Z,0.43
2017-12-03T07:52:20.705Z,0.54
2017-12-03T07:57:21.496Z,0.55
2017-12-03T08:02:22.279Z,0.64
2017-12-03T08:07:23.050Z,0.67
2017-12-03T08:12:23.853Z,0.78
2017-12-03T08:17:24.644Z,0.76
2017-12-03T08:22:25.600Z,0.88
2017-12-03T08:27:26.404Z,0.84
2017-12-03T08:32:27.186Z,0.91
2017-12-03T08:37:27.985Z,0.79
2017-12-03T08:42:29.284Z,0.72
2017-12-03T08:47:32.065Z,0.69
2017-12-03T08:52:32.931Z,0.63
2017-12-03T08:57:33.749Z,0.72
2017-12-03T09:02:34.564Z,0.74
2017-12-03T09:07:35.342Z,0.89
2017-12-03T09:12:36.133Z,0.71
2017-12-03T09:17:40.040Z,0.76
2017-12-03T09:22:42.866Z,0.97
2017-12-03T09:27:43.684Z,1.05
2017-12-03T09:32:44.531Z,1.05
2017-12-03T09:37:45.341Z,1.09
2017-12-03T09:42:46.148Z,1.11
2017-12-03T09:47:52.548Z,1.16
2017-12-03T09:52:59.818Z,1.31
2017-12-03T09:58:00.639Z,1.40
2017-12-03T10:03:01.445Z,1.42
2017-12-03T10:08:02.270Z,1.46
2017-12-03T10:13:03.150Z,1.54
2017-12-03T10:18:03.941Z,1.32
2017-12-03T10:23:05.539Z,1.37
2017-12-03T10:28:06.366Z,1.47
2017-12-03T10:33:07.163Z,1.60
2017-12-03T10:38:19.036Z,1.70
2017-12-03T10:43:19.828Z,1.64
2017-12-03T10:48:20.586Z,1.52
2017-12-03T10:53:21.390Z,1.46
2017-12-03T10:58:22.189Z,1.45
2017-12-03T11:03:29.653Z,1.48
2017-12-03T11:08:30.445Z,1.55
2017-12-03T11:13:31.215Z,1.54
2017-12-03T11:18:32.715Z,1.61
2017-12-03T11:23:33.523Z,1.55
2017-12-03T11:28:34.324Z,1.47
2017-12-03T11:33:35.120Z,1.56
2017-12-03T11:38:35.905Z,1.29
2017-12-03T11:43:36.681Z,1.35
2017-12-03T11:48:37.515Z,1.43
2017-12-03T11:53:38.323Z,1.47
2017-12-03T11:58:39.092Z,1.25
2017-12-03T12:03:39.934Z,1.14
2017-12-03T12:08:40.729Z,1.13
2017-12-03T12:13:41.495Z,1.05
2017-12-03T12:19:04.845Z,1.13
2017-12-03T12:24:05.639Z,1.12
2017-12-03T12:29:06.475Z,1.20
2017-12-03T12:34:07.256Z,1.16
2017-12-03T12:39:08.030Z,1.16
2017-12-03T12:44:08.819Z,1.03
2017-12-03T12:49:09.636Z,0.90
2017-12-03T12:54:10.409Z,0.95
2017-12-03T12:59:11.194Z,1.05
2017-12-03T13:04:11.962Z,0.92
2017-12-03T13:09:12.741Z,0.96
2017-12-03T13:14:13.529Z,0.98
2017-12-03T13:19:14.304Z,1.12
2017-12-03T13:24:15.092Z,1.11
2017-12-03T13:29:15.882Z,1.03
2017-12-03T13:34:16.646Z,0.92
2017-12-03T13:39:17.412Z,1.09
2017-12-03T13:44:18.203Z,0.90
2017-12-03T13:49:18.990Z,0.87
2017-12-03T13:54:19.820Z,0.94
2017-12-03T13:59:20.597Z,0.84
2017-12-03T14:04:21.361Z,0.80
2017-12-03T14:09:22.134Z,0.83
2017-12-03T14:14:22.917Z,0.77
2017-12-03T14:19:23.717Z,0.77
2017-12-03T14:24:24.468Z,0.64
2017-12-03T14:29:25.277Z,0.73
2017-12-03T14:34:26.074Z,0.71
2017-12-03T14:39:26.839Z,0.70
2017-12-03T14:44:27.645Z,0.66
2017-12-03T14:49:28.417Z,0.61
2017-12-03T14:54:29.202Z,0.44
2017-12-03T14:59:29.970Z,0.45
2017-12-03T15:04:30.744Z,0.46
2017-12-03T15:09:31.524Z,0.19
2017-12-03T15:14:32.300Z,0.08
2017-12-03T15:19:33.090Z,-0.06
2017-12-03T15:24:33.898Z,-0.08
2017-12-03T15:29:34.716Z,-0.19
2017-12-03T15:34:35.563Z,-0.18
2017-12-03T15:39:36.362Z,-0.13
2017-12-03T15:44:37.136Z,-0.12
2017-12-03T15:49:37.954Z,-0.17
2017-12-03T15:54:38.777Z,-0.26
2017-12-03T15:59:43.151Z,-0.14
2017-12-03T16:04:43.926Z,-0.26
2017-12-03T16:09:44.715Z,-0.33
2017-12-03T16:14:45.507Z,-0.35
2017-12-03T16:19:46.276Z,-0.29
2017-12-03T16:24:47.083Z,-0.30
2017-12-03T16:29:48.244Z,-0.32
2017-12-03T16:34:49.033Z,-0.38
2017-12-03T16:39:49.821Z,-0.29
2017-12-03T16:44:50.596Z,-0.29
2017-12-03T16:49:51.945Z,-0.42
2017-12-03T16:54:52.749Z,-0.35
2017-12-03T16:59:53.561Z,-0.29
2017-12-03T17:04:54.343Z,-0.47
2017-12-03T17:09:55.172Z,-0.48
2017-12-03T17:14:55.984Z,-0.43
2017-12-03T17:19:56.769Z,-0.41
2017-12-03T17:24:57.570Z,-0.38
2017-12-03T17:29:58.401Z,-0.33
2017-12-03T17:34:59.209Z,-0.37
2017-12-03T17:40:00.007Z,-0.43
2017-12-03T17:45:00.804Z,-0.46
2017-12-03T17:50:01.593Z,-0.48
2017-12-03T17:55:02.370Z,-0.51
2017-12-03T18:00:03.137Z,-0.46
2017-12-03T18:05:10.821Z,-0.55
2017-12-03T18:10:11.651Z,-0.46
2017-12-03T18:15:14.467Z,-0.56
2017-12-03T18:20:15.319Z,-0.49
2017-12-03T18:25:16.078Z,-0.46
2017-12-03T18:30:16.865Z,-0.50
2017-12-03T18:35:17.613Z,-0.52
2017-12-03T18:40:18.389Z,-0.40
2017-12-03T18:45:19.178Z,-0.46
2017-12-03T18:50:19.974Z,-0.45
2017-12-03T18:55:20.819Z,-0.39
2017-12-03T19:00:21.634Z,-0.39
2017-12-03T19:05:22.441Z,-0.46
2017-12-03T19:10:23.266Z,-0.39
2017-12-03T19:15:24.063Z,-0.44
2017-12-03T19:20:24.818Z,-0.43
2017-12-03T19:25:25.596Z,-0.41
2017-12-03T19:30:26.393Z,-0.35
2017-12-03T19:35:27.166Z,-0.31
2017-12-03T19:40:27.963Z,-0.30
2017-12-03T19:45:28.749Z,-0.33
2017-12-03T19:50:29.557Z,-0.33
2017-12-03T19:55:30.361Z,-0.32
2017-12-03T20:00:31.174Z,-0.24
2017-12-03T20:05:32.011Z,-0.33
2017-12-03T20:10:32.805Z,-0.28
2017-12-03T20:15:33.593Z,-0.19
2017-12-03T20:20:34.381Z,-0.21
2017-12-03T20:25:35.197Z,-0.25
2017-12-03T20:30:35.999Z,-0.24
2017-12-03T20:35:36.831Z,-0.26
2017-12-03T20:40:37.634Z,-0.25
2017-12-03T20:45:38.433Z,-0.34
2017-12-03T20:50:39.232Z,-0.28
2017-12-03T20:55:40.005Z,-0.19
2017-12-03T21:00:40.814Z,-0.22
2017-12-03T21:05:41.981Z,-0.22
2017-12-03T21:10:42.782Z,-0.19
2017-12-03T21:15:43.578Z,-0.08
2017-12-03T21:20:45.363Z,-0.09
2017-12-03T21:25:46.144Z,-0.15
2017-12-03T21:30:46.924Z,-0.14
2017-12-03T21:35:47.946Z,-0.12
2017-12-03T21:40:48.832Z,-0.23
2017-12-03T21:45:49.629Z,-0.15
2017-12-03T21:50:50.405Z,-0.11
2017-12-03T21:55:51.192Z,-0.12
2017-12-03T22:00:51.970Z,-0.07
2017-12-03T22:05:52.786Z,-0.10
2017-12-03T22:10:53.661Z,-0.06
2017-12-03T22:15:54.437Z,-0.06
2017-12-03T22:20:55.245Z,-0.11
2017-12-03T22:25:56.020Z,-0.12
2017-12-03T22:30:56.793Z,-0.16
2017-12-03T22:35:57.620Z,-0.09
2017-12-03T22:40:58.436Z,-0.04
2017-12-03T22:45:59.313Z,-0.11
2017-12-03T22:51:00.089Z,-0.05
2017-12-03T22:56:00.959Z,-0.09
2017-12-03T23:01:01.767Z,-0.02
2017-12-03T23:06:02.557Z,0.00
2017-12-03T23:11:03.333Z,0.07
2017-12-03T23:16:04.113Z,-0.04
2017-12-03T23:21:04.877Z,0.00
2017-12-03T23:26:05.697Z,0.07
2017-12-03T23:31:06.479Z,0.08
2017-12-03T23:36:07.267Z,0.02
2017-12-03T23:41:08.062Z,0.08
2017-12-03T23:46:08.882Z,0.07
2017-12-03T23:51:09.678Z,0.12
2017-12-03T23:56:10.468Z,0.20
